Time;durP1;ratioP1;P1;durP2;ratioP2;P2;SDS_P1;SDS_P2;PMS_P1;PMS_P2;Temp;Humidity;BMP_temperature;BMP_pressure;BME280_temperature;BME280_humidity;BME280_pressure;Samples;Min_cycle;Max_cycle;Signal;HPM_P1;HPM_P2
2023/02/24 00:01:50;;;;;;;20.10;3.50;;;;;;;3.61;96.78;100578.56;108736;1256;72737;-77
2023/02/24 00:04:18;;;;;;;16.60;3.90;;;;;;;3.54;96.88;100573.88;108721;1257;72354;-77
2023/02/24 00:06:45;;;;;;;22.60;4.30;;;;;;;3.48;97.03;100575.98;108785;1256;73836;-76
2023/02/24 00:09:15;;;;;;;18.10;3.80;;;;;;;3.42;97.20;100577.40;108706;1256;61216;-76
2023/02/24 00:11:45;;;;;;;27.00;4.10;;;;;;;3.38;97.32;100574.77;108835;1256;59264;-76
2023/02/24 00:14:18;;;;;;;21.00;3.60;;;;;;;3.36;97.53;100573.39;108746;1257;74956;-76
2023/02/24 00:16:46;;;;;;;16.80;3.40;;;;;;;3.34;97.43;100563.05;108846;1256;71540;-76
2023/02/24 00:19:15;;;;;;;20.10;3.70;;;;;;;3.34;97.37;100556.77;108814;1257;72538;-77
2023/02/24 00:21:43;;;;;;;18.40;3.70;;;;;;;3.34;97.41;100557.09;108838;1256;59689;-76
2023/02/24 00:24:10;;;;;;;19.60;3.30;;;;;;;3.33;97.36;100554.19;108705;1256;60262;-76
2023/02/24 00:26:37;;;;;;;18.90;3.40;;;;;;;3.31;97.09;100549.48;108757;1259;73860;-77
2023/02/24 00:29:07;;;;;;;14.10;3.40;;;;;;;3.28;96.83;100551.63;108824;1256;70891;-76
2023/02/24 00:31:37;;;;;;;19.90;3.20;;;;;;;3.25;96.61;100546.31;108721;1256;72493;-76
2023/02/24 00:34:06;;;;;;;21.10;3.30;;;;;;;3.21;96.95;100542.77;108824;1256;60496;-77
2023/02/24 00:36:32;;;;;;;18.00;3.90;;;;;;;3.20;96.80;100536.60;108832;1256;60030;-77
2023/02/24 00:39:08;;;;;;;18.60;3.90;;;;;;;3.19;96.95;100535.50;108806;1256;74044;-77
2023/02/24 00:41:42;;;;;;;20.50;3.00;;;;;;;3.20;97.05;100538.89;108814;1257;71209;-77
2023/02/24 00:44:12;;;;;;;16.30;3.30;;;;;;;3.21;97.20;100529.63;108802;1256;70652;-77
2023/02/24 00:46:44;;;;;;;17.60;3.10;;;;;;;3.24;96.98;100527.16;108794;1256;61251;-77
2023/02/24 00:49:15;;;;;;;16.10;3.80;;;;;;;3.25;97.01;100525.29;108809;1257;60078;-77
2023/02/24 00:51:45;;;;;;;18.70;3.40;;;;;;;3.26;96.75;100523.64;108850;1256;74606;-77
2023/02/24 00:54:13;;;;;;;16.70;2.90;;;;;;;3.28;96.71;100522.84;108744;1256;70235;-77
2023/02/24 00:56:46;;;;;;;15.00;2.90;;;;;;;3.30;96.52;100519.52;108756;1256;71660;-77
2023/02/24 00:59:14;;;;;;;14.80;3.00;;;;;;;3.32;96.55;100518.48;108789;1257;60508;-77
2023/02/24 01:01:45;;;;;;;14.50;2.90;;;;;;;3.33;96.43;100514.67;108786;1256;60065;-77
2023/02/24 01:04:12;;;;;;;18.60;3.10;;;;;;;3.34;96.31;100507.42;108806;1256;74959;-77
2023/02/24 01:06:45;;;;;;;13.50;2.90;;;;;;;3.34;95.92;100503.45;108748;1257;68978;-77
2023/02/24 01:09:14;;;;;;;19.10;3.00;;;;;;;3.33;95.32;100500.16;108822;1256;72412;-77
2023/02/24 01:14:30;;;;;;;16.30;3.10;;;;;;;3.34;95.02;100500.63;108760;1257;59808;-78
2023/02/24 01:16:58;;;;;;;17.60;2.90;;;;;;;3.35;95.13;100499.46;108823;1256;73698;-78
2023/02/24 01:19:30;;;;;;;16.00;2.90;;;;;;;3.38;95.19;100495.55;108778;1257;69735;-77
2023/02/24 01:21:59;;;;;;;16.40;3.50;;;;;;;3.41;95.26;100493.89;108835;1256;72559;-78
2023/02/24 01:24:27;;;;;;;13.70;3.20;;;;;;;3.44;95.68;100489.80;108750;1256;59951;-78
2023/02/24 01:26:56;;;;;;;19.20;3.20;;;;;;;3.46;95.78;100487.63;108781;1256;59589;-78
2023/02/24 01:29:24;;;;;;;18.00;3.30;;;;;;;3.49;95.90;100487.22;108646;1257;74779;-78
2023/02/24 01:31:56;;;;;;;17.90;3.50;;;;;;;3.51;96.14;100485.13;108764;1256;71204;-78
2023/02/24 01:34:24;;;;;;;15.30;2.50;;;;;;;3.51;96.20;100477.59;108751;1256;71258;-78
2023/02/24 01:36:52;;;;;;;15.20;3.30;;;;;;;3.53;96.36;100473.64;108809;1256;59594;-79
2023/02/24 01:39:19;;;;;;;16.80;3.30;;;;;;;3.52;96.08;100472.87;108599;1256;59453;-79
2023/02/24 01:41:49;;;;;;;17.10;3.30;;;;;;;3.50;95.65;100471.98;108761;1257;73548;-78
2023/02/24 01:44:21;;;;;;;15.70;3.50;;;;;;;3.48;95.66;100470.41;108730;1257;69939;-78
2023/02/24 01:46:51;;;;;;;17.80;3.10;;;;;;;3.47;95.64;100467.31;108847;1256;72802;-78
2023/02/24 01:49:35;;;;;;;18.10;3.10;;;;;;;3.48;95.83;100460.05;108817;1256;60693;-78
2023/02/24 01:52:12;;;;;;;16.10;2.70;;;;;;;3.49;95.78;100451.98;108756;1257;60465;-79
2023/02/24 01:54:49;;;;;;;18.20;3.20;;;;;;;3.48;95.65;100447.98;108774;1256;73121;-79
2023/02/24 01:57:18;;;;;;;17.40;2.70;;;;;;;3.48;95.33;100447.80;108832;1256;70640;-79
2023/02/24 01:59:49;;;;;;;15.40;3.10;;;;;;;3.49;95.20;100447.77;108789;1256;72633;-80
2023/02/24 02:02:17;;;;;;;18.30;3.00;;;;;;;3.48;95.07;100448.88;108806;1260;59712;-80
2023/02/24 02:04:58;;;;;;;16.90;3.10;;;;;;;3.48;95.09;100445.04;108665;1256;59957;-80
2023/02/24 02:07:27;;;;;;;13.30;2.70;;;;;;;3.49;94.95;100442.34;108758;1257;73136;-80
2023/02/24 02:09:58;;;;;;;15.40;2.60;;;;;;;3.49;94.73;100436.56;108819;1256;70994;-80
2023/02/24 02:12:27;;;;;;;14.60;2.50;;;;;;;3.49;94.76;100436.56;108775;1256;72444;-80
2023/02/24 02:14:57;;;;;;;14.30;2.70;;;;;;;3.50;94.73;100428.73;108670;1260;60534;-80
2023/02/24 02:17:26;;;;;;;12.90;2.90;;;;;;;3.51;94.56;100425.50;108656;1261;59136;-80
2023/02/24 02:20:35;;;;;;;16.00;2.70;;;;;;;3.51;93.97;100417.11;108810;1257;74985;-80
2023/02/24 02:23:39;;;;;;;17.10;3.20;;;;;;;3.51;93.84;100419.95;108181;1265;69782;-80
2023/02/24 02:26:17;;;;;;;17.80;2.70;;;;;;;3.48;93.62;100414.05;108160;1266;70382;-80
2023/02/24 02:28:47;;;;;;;13.20;2.50;;;;;;;3.47;93.46;100409.77;108615;1256;59651;-80
2023/02/24 02:31:35;;;;;;;13.10;2.20;;;;;;;3.49;93.52;100406.32;108783;1257;58823;-80
2023/02/24 02:34:05;;;;;;;14.00;2.30;;;;;;;3.48;93.50;100396.77;108845;1256;73764;-80
2023/02/24 02:36:50;;;;;;;10.30;2.40;;;;;;;3.47;93.14;100393.20;108830;1256;71209;-80
2023/02/24 02:39:20;;;;;;;16.90;2.70;;;;;;;3.46;93.34;100387.85;108734;1257;72389;-80
2023/02/24 02:42:04;;;;;;;17.30;3.10;;;;;;;3.47;93.58;100388.48;108813;1256;60910;-80
2023/02/24 02:44:39;;;;;;;15.90;3.00;;;;;;;3.46;93.46;100385.76;108755;1259;60089;-80
2023/02/24 02:47:17;;;;;;;13.90;2.70;;;;;;;3.45;93.40;100386.05;108664;1256;73511;-80
2023/02/24 02:49:50;;;;;;;14.40;2.50;;;;;;;3.45;93.34;100383.42;108781;1256;71268;-80
2023/02/24 02:52:28;;;;;;;17.90;2.70;;;;;;;3.43;92.91;100379.06;108627;1257;72664;-80
2023/02/24 02:55:01;;;;;;;11.80;2.40;;;;;;;3.43;92.70;100377.84;108795;1257;60924;-80
2023/02/24 02:57:30;;;;;;;16.50;2.50;;;;;;;3.41;92.42;100372.90;108706;1256;59687;-80
2023/02/24 03:00:22;;;;;;;12.80;2.60;;;;;;;3.42;92.43;100371.30;108758;1262;74583;-80
2023/02/24 03:02:56;;;;;;;10.80;2.20;;;;;;;3.36;89.97;100367.05;108822;1256;71044;-80
2023/02/24 03:05:30;;;;;;;13.50;2.30;;;;;;;3.38;90.62;100359.06;108743;1256;72079;-80
2023/02/24 03:08:00;;;;;;;7.50;2.20;;;;;;;3.38;89.60;100358.02;108842;1256;60893;-80
2023/02/24 03:10:33;;;;;;;14.10;2.70;;;;;;;3.38;89.30;100353.66;108723;1256;60084;-80
2023/02/24 03:13:02;;;;;;;11.00;2.60;;;;;;;3.38;90.23;100348.20;108730;1256;73631;-80
2023/02/24 03:15:32;;;;;;;9.10;1.90;;;;;;;3.38;90.51;100344.91;108717;1256;69730;-80
2023/02/24 03:18:09;;;;;;;8.70;2.30;;;;;;;3.34;89.68;100347.90;108767;1256;72509;-80
2023/02/24 03:20:41;;;;;;;10.60;2.00;;;;;;;3.32;88.93;100337.97;108818;1256;59991;-80
2023/02/24 03:23:15;;;;;;;8.00;1.90;;;;;;;3.28;88.44;100332.28;108859;1256;60538;-80
2023/02/24 03:25:59;;;;;;;11.30;2.20;;;;;;;3.23;87.19;100326.05;108765;1256;73142;-80
2023/02/24 03:29:04;;;;;;;10.80;2.20;;;;;;;3.19;86.65;100320.64;108925;1256;69053;-80
2023/02/24 03:31:59;;;;;;;12.00;2.30;;;;;;;3.14;86.11;100323.40;108888;1256;71121;-80
2023/02/24 03:35:03;;;;;;;15.00;2.40;;;;;;;3.10;87.08;100318.17;108850;1257;60613;-80
2023/02/24 03:37:32;;;;;;;12.30;2.60;;;;;;;3.07;87.82;100312.46;108733;1262;59167;-80
2023/02/24 03:40:13;;;;;;;9.10;2.00;;;;;;;3.05;87.60;100312.83;108770;1257;73464;-80
2023/02/24 03:42:44;;;;;;;12.00;2.10;;;;;;;3.04;87.64;100311.72;108822;1256;69654;-80
2023/02/24 03:45:12;;;;;;;12.00;2.20;;;;;;;3.03;87.67;100311.30;108757;1258;71386;-80
2023/02/24 03:47:40;;;;;;;8.80;1.70;;;;;;;3.01;87.03;100311.63;108868;1259;61035;-79
2023/02/24 03:50:16;;;;;;;9.70;2.10;;;;;;;2.99;86.87;100302.91;108796;1256;59309;-79
2023/02/24 03:53:29;;;;;;;12.40;2.30;;;;;;;2.97;86.07;100298.20;108933;1257;73351;-80
2023/02/24 03:56:22;;;;;;;11.00;2.10;;;;;;;2.95;85.26;100294.74;108925;1260;70123;-79
2023/02/24 03:59:29;;;;;;;12.10;1.70;;;;;;;2.92;85.03;100293.58;108712;1257;70867;-79
2023/02/24 04:02:05;;;;;;;8.00;1.60;;;;;;;2.92;84.97;100290.79;108907;1261;59666;-79
2023/02/24 04:04:38;;;;;;;7.80;1.70;;;;;;;2.94;84.82;100292.89;108975;1257;59109;-79
2023/02/24 04:07:13;;;;;;;8.70;1.80;;;;;;;2.93;84.60;100286.71;108928;1256;73650;-80
2023/02/24 04:09:50;;;;;;;8.50;1.80;;;;;;;2.93;84.21;100286.85;108909;1256;70860;-80
2023/02/24 04:12:28;;;;;;;7.10;1.40;;;;;;;2.94;84.19;100288.14;108836;1256;72365;-80
2023/02/24 04:15:17;;;;;;;9.40;1.70;;;;;;;2.94;83.63;100286.34;108845;1257;61263;-80
2023/02/24 04:17:46;;;;;;;7.40;1.60;;;;;;;2.96;82.95;100281.36;108922;1258;59849;-80
2023/02/24 04:20:19;;;;;;;5.20;1.30;;;;;;;2.96;82.41;100280.63;108846;1256;74719;-80
2023/02/24 04:22:53;;;;;;;7.20;1.60;;;;;;;2.98;82.57;100279.38;108861;1257;69779;-80
2023/02/24 04:25:23;;;;;;;9.10;1.70;;;;;;;2.98;82.03;100279.43;108820;1257;72743;-80
2023/02/24 04:27:53;;;;;;;8.00;1.80;;;;;;;2.97;81.43;100277.09;108841;1257;59710;-80
2023/02/24 04:30:21;;;;;;;7.10;1.80;;;;;;;2.97;81.71;100272.84;108830;1256;60049;-80
2023/02/24 04:32:49;;;;;;;9.00;2.00;;;;;;;2.98;81.71;100267.19;108867;1256;73131;-80
2023/02/24 04:35:21;;;;;;;7.40;1.40;;;;;;;2.97;81.84;100269.34;108723;1257;70328;-80
2023/02/24 04:37:49;;;;;;;5.60;1.30;;;;;;;2.96;82.03;100268.73;108843;1257;72466;-80
2023/02/24 04:40:20;;;;;;;8.70;1.60;;;;;;;2.93;81.17;100267.44;108849;1257;60202;-80
2023/02/24 04:42:50;;;;;;;8.90;1.80;;;;;;;2.96;81.32;100262.16;108889;1257;61648;-80
2023/02/24 04:45:21;;;;;;;7.20;2.00;;;;;;;2.95;81.67;100258.00;108765;1257;74045;-80
2023/02/24 04:47:50;;;;;;;9.40;2.00;;;;;;;2.94;80.46;100253.98;108876;1259;71275;-79
2023/02/24 04:50:24;;;;;;;11.50;1.80;;;;;;;2.92;79.86;100250.42;108874;1256;72779;-79
2023/02/24 04:52:57;;;;;;;10.20;2.00;;;;;;;2.92;79.88;100248.35;108875;1257;59046;-80
2023/02/24 04:55:36;;;;;;;7.80;1.20;;;;;;;2.91;78.84;100258.38;108797;1256;59326;-80
2023/02/24 04:58:03;;;;;;;8.40;1.80;;;;;;;2.89;78.63;100245.83;108930;1256;73445;-80
2023/02/24 05:00:34;;;;;;;6.40;1.70;;;;;;;2.88;79.10;100241.56;108838;1256;71932;-80
2023/02/24 05:03:04;;;;;;;5.70;1.60;;;;;;;2.88;79.17;100238.22;108775;1256;71264;-79
2023/02/24 05:05:34;;;;;;;7.10;1.40;;;;;;;2.89;79.95;100231.82;108848;1256;59415;-80
2023/02/24 05:08:06;;;;;;;9.80;1.60;;;;;;;2.90;80.52;100225.45;108735;1257;60088;-80
2023/02/24 05:10:43;;;;;;;7.50;1.30;;;;;;;2.88;79.44;100218.45;108811;1255;73471;-80
2023/02/24 05:13:19;;;;;;;8.50;1.30;;;;;;;2.87;79.28;100212.63;108852;1256;69748;-80
2023/02/24 05:15:48;;;;;;;7.90;1.50;;;;;;;2.86;80.18;100211.24;108798;1256;71268;-80
2023/02/24 05:18:16;;;;;;;9.10;1.50;;;;;;;2.84;78.47;100206.23;108756;1256;60535;-79
2023/02/24 05:23:38;;;;;;;7.20;1.30;;;;;;;2.83;79.10;100188.83;108792;1256;73923;-80
2023/02/24 05:26:07;;;;;;;8.40;1.70;;;;;;;2.85;79.79;100183.10;108878;1257;70644;-80
2023/02/24 05:28:39;;;;;;;9.20;1.90;;;;;;;2.86;80.58;100176.56;108751;1258;72344;-79
2023/02/24 05:31:07;;;;;;;9.20;1.80;;;;;;;2.87;81.19;100171.70;108863;1256;60034;-79
2023/02/24 05:33:36;;;;;;;10.80;1.70;;;;;;;2.87;81.18;100168.98;108752;1257;59155;-79
2023/02/24 05:36:07;;;;;;;10.00;1.50;;;;;;;2.84;81.28;100162.00;108764;1257;72474;-79
2023/02/24 05:38:36;;;;;;;5.90;1.70;;;;;;;2.85;81.47;100157.09;108754;1256;71343;-79
2023/02/24 05:41:15;;;;;;;7.30;1.70;;;;;;;2.85;81.63;100156.00;108859;1257;72646;-79
2023/02/24 05:43:51;;;;;;;8.20;1.60;;;;;;;2.86;81.32;100150.89;108924;1256;59814;-80
2023/02/24 05:46:27;;;;;;;8.70;1.60;;;;;;;2.84;81.26;100145.45;108741;1257;59177;-79
2023/02/24 05:48:58;;;;;;;7.60;1.80;;;;;;;2.85;81.23;100141.65;108811;1256;73921;-78
2023/02/24 05:51:34;;;;;;;7.00;1.50;;;;;;;2.84;81.48;100138.31;108786;1256;71269;-78
2023/02/24 05:54:06;;;;;;;8.10;1.40;;;;;;;2.83;81.51;100133.10;108835;1256;71111;-78
2023/02/24 05:56:37;;;;;;;7.30;1.90;;;;;;;2.84;81.61;100131.34;108787;1256;60387;-78
2023/02/24 05:59:07;;;;;;;8.50;1.70;;;;;;;2.85;81.57;100128.44;108795;1256;59400;-78
2023/02/24 06:01:36;;;;;;;7.90;1.40;;;;;;;2.85;81.07;100121.93;108793;1257;74757;-78
2023/02/24 06:04:05;;;;;;;5.50;1.40;;;;;;;2.83;79.62;100113.24;108878;1256;70037;-78
2023/02/24 06:06:40;;;;;;;5.60;1.20;;;;;;;2.81;79.47;100111.52;108915;1256;71685;-78
2023/02/24 06:09:11;;;;;;;9.90;2.10;;;;;;;2.80;79.21;100108.09;108864;1257;60028;-78
2023/02/24 06:11:40;;;;;;;11.40;1.90;;;;;;;2.79;78.68;100099.77;108868;1257;59385;-78
2023/02/24 06:14:08;;;;;;;6.00;1.40;;;;;;;2.80;78.71;100097.61;108874;1256;74745;-78
2023/02/24 06:16:36;;;;;;;7.50;1.20;;;;;;;2.80;78.71;100095.36;108931;1256;69506;-78
2023/02/24 06:19:04;;;;;;;4.50;0.90;;;;;;;2.80;78.27;100088.58;108691;1257;73899;-78
2023/02/24 06:21:31;;;;;;;6.40;1.10;;;;;;;2.78;78.03;100084.66;108694;1257;60881;-78
2023/02/24 06:23:59;;;;;;;7.40;1.40;;;;;;;2.78;78.05;100078.01;108864;1256;59391;-78
2023/02/24 06:26:32;;;;;;;7.10;1.40;;;;;;;2.78;77.57;100075.45;108918;1256;75200;-78
2023/02/24 06:28:59;;;;;;;6.90;1.40;;;;;;;2.78;77.46;100069.00;108781;1259;70518;-79
2023/02/24 06:31:26;;;;;;;4.40;0.80;;;;;;;2.79;77.51;100063.87;108768;1259;72358;-79
2023/02/24 06:33:54;;;;;;;5.00;0.90;;;;;;;2.82;77.57;100060.25;108854;1256;60957;-78
2023/02/24 06:36:21;;;;;;;5.60;1.50;;;;;;;2.83;77.65;100058.05;108668;1257;61571;-79
2023/02/24 06:38:51;;;;;;;7.90;2.40;;;;;;;2.83;77.26;100049.86;108787;1256;72753;-77
2023/02/24 06:41:18;;;;;;;9.30;2.00;;;;;;;2.87;76.96;100046.86;108864;1256;69988;-78
2023/02/24 06:43:47;;;;;;;6.00;1.90;;;;;;;2.91;77.05;100046.14;108741;1257;72426;-78
2023/02/24 06:46:15;;;;;;;5.50;1.90;;;;;;;2.95;76.77;100043.21;108852;1256;60943;-78
2023/02/24 06:48:42;;;;;;;5.80;1.50;;;;;;;2.96;76.74;100045.06;108920;1256;60007;-78
2023/02/24 06:51:12;;;;;;;5.60;0.90;;;;;;;2.99;76.73;100042.48;108907;1256;73637;-78
2023/02/24 06:53:43;;;;;;;6.60;1.20;;;;;;;2.99;76.47;100037.59;108778;1259;69364;-78
2023/02/24 06:56:18;;;;;;;6.10;1.10;;;;;;;3.00;76.32;100038.55;108898;1256;72377;-78
2023/02/24 06:58:49;;;;;;;6.20;1.40;;;;;;;3.01;76.64;100033.52;108737;1256;61346;-78
2023/02/24 07:01:24;;;;;;;5.30;1.30;;;;;;;3.01;76.25;100032.14;108658;1257;60413;-78
2023/02/24 07:06:37;;;;;;;6.90;1.90;;;;;;;3.00;76.19;100027.15;108890;1256;69932;-77
2023/02/24 07:09:07;;;;;;;6.50;1.30;;;;;;;3.01;75.73;100028.29;108743;1256;72526;-77
2023/02/24 07:11:35;;;;;;;6.10;1.20;;;;;;;3.02;75.80;100027.32;108674;1257;59811;-77
2023/02/24 07:14:04;;;;;;;6.40;1.20;;;;;;;3.04;76.11;100020.17;108935;1256;59869;-77
2023/02/24 07:16:33;;;;;;;6.20;1.30;;;;;;;3.05;76.12;100019.92;108738;1258;74731;-78
2023/02/24 07:19:10;;;;;;;7.00;1.20;;;;;;;3.06;75.94;100014.02;108875;1256;71215;-78
2023/02/24 07:21:42;;;;;;;5.50;1.10;;;;;;;3.06;75.98;100007.36;108727;1256;72336;-78
2023/02/24 07:24:19;;;;;;;6.70;1.30;;;;;;;3.09;76.49;100005.77;108774;1256;60908;-78
2023/02/24 07:26:50;;;;;;;7.10;1.30;;;;;;;3.07;76.25;100007.14;108897;1256;59304;-77
2023/02/24 07:29:17;;;;;;;6.60;1.10;;;;;;;3.08;76.15;100003.16;108805;1256;73973;-78
2023/02/24 07:31:44;;;;;;;6.80;1.20;;;;;;;3.09;76.03;99998.05;108747;1256;70078;-78
2023/02/24 07:34:13;;;;;;;7.20;1.50;;;;;;;3.08;75.91;99995.31;108947;1255;72791;-77
2023/02/24 07:36:48;;;;;;;5.80;1.00;;;;;;;3.10;75.91;99991.95;108692;1263;59719;-78
2023/02/24 07:39:16;;;;;;;5.20;1.30;;;;;;;3.11;75.65;99993.13;108870;1257;60469;-78
2023/02/24 07:41:44;;;;;;;6.80;1.50;;;;;;;3.10;75.54;99981.16;108852;1256;74138;-78
2023/02/24 07:44:12;;;;;;;8.00;1.40;;;;;;;3.11;75.40;99978.79;108762;1256;70541;-77
2023/02/24 07:46:39;;;;;;;5.80;1.10;;;;;;;3.12;75.39;99977.46;108047;1256;930359;-78
2023/02/24 07:49:08;;;;;;;7.20;1.20;;;;;;;3.14;75.46;99967.20;108882;1256;59878;-78
2023/02/24 07:51:35;;;;;;;7.30;1.10;;;;;;;3.17;75.58;99963.88;108890;1256;59423;-78
2023/02/24 07:54:04;;;;;;;8.20;1.30;;;;;;;3.19;75.16;99963.55;108728;1257;73215;-78
2023/02/24 07:56:31;;;;;;;5.80;1.20;;;;;;;3.19;75.22;99960.41;108868;1256;70037;-78
2023/02/24 07:59:06;;;;;;;7.60;1.20;;;;;;;3.18;74.94;99958.70;108776;1258;72121;-78
2023/02/24 08:01:38;;;;;;;5.50;1.30;;;;;;;3.20;74.94;99949.12;108746;1257;59155;-78
2023/02/24 08:04:07;;;;;;;4.80;1.30;;;;;;;3.20;74.64;99955.21;108867;1259;59439;-78
2023/02/24 08:06:42;;;;;;;5.80;1.30;;;;;;;3.21;74.67;99943.05;108786;1256;72906;-78
2023/02/24 08:09:19;;;;;;;6.70;1.30;;;;;;;3.24;74.98;99935.96;108864;1256;71203;-78
2023/02/24 08:11:52;;;;;;;6.60;1.40;;;;;;;3.24;74.82;99934.89;108833;1256;71422;-78
2023/02/24 08:14:23;;;;;;;8.20;1.40;;;;;;;3.25;74.79;99936.08;108898;1256;59919;-78
2023/02/24 08:16:58;;;;;;;6.80;1.40;;;;;;;3.24;74.67;99924.44;108930;1260;58953;-78
2023/02/24 08:19:38;;;;;;;5.40;1.30;;;;;;;3.23;74.39;99925.96;108697;1259;75085;-78
2023/02/24 08:22:19;;;;;;;7.20;1.60;;;;;;;3.27;74.85;99914.73;108882;1256;69966;-78
2023/02/24 08:24:49;;;;;;;4.90;1.10;;;;;;;3.28;74.57;99913.64;108907;1256;72383;-78
2023/02/24 08:27:20;;;;;;;6.10;1.10;;;;;;;3.29;74.89;99907.73;108753;1258;60341;-78
2023/02/24 08:29:58;;;;;;;5.90;1.10;;;;;;;3.30;74.81;99901.55;108864;1258;60081;-78
2023/02/24 08:32:32;;;;;;;4.40;1.30;;;;;;;3.34;74.90;99905.21;108762;1256;73742;-78
2023/02/24 08:35:04;;;;;;;8.10;1.10;;;;;;;3.36;74.90;99894.86;108900;1256;69955;-78
2023/02/24 08:37:38;;;;;;;5.70;1.50;;;;;;;3.38;75.08;99891.71;108881;1257;71241;-78
2023/02/24 08:40:36;;;;;;;5.30;1.10;;;;;;;3.37;74.57;99892.92;108866;1257;60181;-78
2023/02/24 08:43:18;;;;;;;8.40;1.30;;;;;;;3.36;74.97;99889.20;108868;1256;60337;-78
2023/02/24 08:45:49;;;;;;;8.00;1.60;;;;;;;3.33;74.84;99887.77;108930;1257;73336;-78
2023/02/24 08:48:38;;;;;;;6.50;1.10;;;;;;;3.32;75.71;99881.80;108782;1256;70440;-78
2023/02/24 08:51:09;;;;;;;5.50;1.30;;;;;;;3.27;75.94;99884.66;108844;1256;71352;-78
2023/02/24 08:53:39;;;;;;;6.40;1.30;;;;;;;3.24;76.73;99881.48;108735;1258;61105;-78
2023/02/24 08:56:10;;;;;;;6.70;1.10;;;;;;;3.16;77.22;99884.90;108903;1256;59184;-78
2023/02/24 08:58:45;;;;;;;5.70;1.30;;;;;;;3.06;78.32;99890.55;108915;1257;73575;-78
2023/02/24 09:01:22;;;;;;;6.60;1.30;;;;;;;3.01;80.09;99874.61;108932;1256;68988;-78
2023/02/24 09:03:58;;;;;;;5.60;0.90;;;;;;;2.98;81.60;99878.75;108787;1256;70677;-78
2023/02/24 09:06:33;;;;;;;7.20;1.40;;;;;;;2.90;82.71;99878.29;108881;1256;59968;-78
2023/02/24 09:09:19;;;;;;;8.50;1.80;;;;;;;2.78;84.03;99878.84;108915;1256;60194;-79
2023/02/24 09:11:58;;;;;;;7.30;1.70;;;;;;;2.62;85.77;99876.55;108757;1256;75139;-78
2023/02/24 09:14:28;;;;;;;7.60;1.40;;;;;;;2.50;86.87;99860.71;108789;1259;70063;-78
2023/02/24 09:17:00;;;;;;;3.90;1.00;;;;;;;2.46;87.92;99853.37;108704;1256;72047;-78
2023/02/24 09:22:31;;;;;;;7.70;1.50;;;;;;;2.29;90.07;99851.27;108887;1255;59055;-78
2023/02/24 09:28:07;;;;;;;11.70;1.50;;;;;;;2.24;91.10;99836.25;108899;1256;69441;-79
2023/02/24 09:30:49;;;;;;;7.20;1.60;;;;;;;2.23;91.38;99830.22;108751;1256;71578;-78
2023/02/24 09:33:24;;;;;;;7.70;1.80;;;;;;;2.20;91.50;99826.64;108888;1260;60292;-78
2023/02/24 09:36:11;;;;;;;9.20;1.70;;;;;;;2.20;92.09;99828.58;108904;1258;60240;-78
2023/02/24 09:39:13;;;;;;;11.60;2.00;;;;;;;2.19;92.11;99824.70;108738;1257;73364;-78
2023/02/24 09:41:52;;;;;;;10.80;2.20;;;;;;;2.20;92.64;99810.98;108945;1256;70416;-78
2023/02/24 09:44:39;;;;;;;6.90;1.70;;;;;;;2.21;92.94;99808.94;108864;1256;72334;-78
2023/02/24 09:50:29;;;;;;;6.40;1.90;;;;;;;2.19;92.96;99799.22;108727;1257;59011;-78
2023/02/24 09:53:16;;;;;;;9.70;2.50;;;;;;;2.18;93.55;99797.58;108938;1256;75644;-78
2023/02/24 09:55:59;;;;;;;7.70;1.90;;;;;;;2.21;94.02;99789.44;108922;1258;69360;-78
2023/02/24 09:58:46;;;;;;;7.00;1.80;;;;;;;2.21;94.41;99792.69;108884;1256;72552;-78
2023/02/24 10:01:41;;;;;;;6.30;1.90;;;;;;;2.22;94.11;99789.81;108862;1257;59751;-77
2023/02/24 10:04:10;;;;;;;8.70;2.30;;;;;;;2.28;94.75;99774.27;108972;1256;60560;-77
2023/02/24 10:06:49;;;;;;;6.30;2.10;;;;;;;2.37;94.94;99767.96;108909;1256;73510;-78
2023/02/24 10:09:34;;;;;;;9.90;2.40;;;;;;;2.43;94.99;99767.80;108875;1260;69807;-78
2023/02/24 10:12:18;;;;;;;7.80;2.20;;;;;;;2.42;94.58;99764.39;108883;1257;72737;-78
2023/02/24 10:15:17;;;;;;;8.20;1.90;;;;;;;2.38;94.77;99763.52;108868;1256;59152;-78
2023/02/24 10:17:56;;;;;;;8.30;2.40;;;;;;;2.37;94.99;99756.29;108883;1256;59160;-78
2023/02/24 10:20:44;;;;;;;8.50;2.00;;;;;;;2.35;95.44;99753.70;108912;1256;74767;-78
2023/02/24 10:23:31;;;;;;;6.30;1.80;;;;;;;2.30;95.77;99747.23;108798;1262;70223;-79
2023/02/24 10:26:20;;;;;;;4.90;1.90;;;;;;;2.29;96.13;99750.13;108831;1259;73035;-78
2023/02/24 10:29:07;;;;;;;9.60;2.30;;;;;;;2.27;97.01;99742.31;108764;1257;59735;-78
2023/02/24 10:31:46;;;;;;;8.10;2.10;;;;;;;2.24;97.64;99737.85;108893;1256;60573;-78
2023/02/24 10:34:25;;;;;;;8.80;1.80;;;;;;;2.30;97.57;99731.75;108877;1256;75005;-78
2023/02/24 10:36:52;;;;;;;9.80;1.90;;;;;;;2.32;98.16;99727.86;108800;1256;69714;-78
2023/02/24 10:39:24;;;;;;;5.80;1.70;;;;;;;2.32;98.02;99721.54;108766;1257;70859;-78
2023/02/24 10:41:57;;;;;;;6.90;1.80;;;;;;;2.29;97.83;99721.98;108741;1256;60005;-78
2023/02/24 10:44:37;;;;;;;6.40;1.60;;;;;;;2.24;98.33;99715.46;108887;1256;59037;-78
2023/02/24 10:47:12;;;;;;;6.20;1.80;;;;;;;2.25;98.32;99713.64;108747;1256;74611;-78
2023/02/24 10:49:56;;;;;;;7.00;1.70;;;;;;;2.28;98.09;99707.46;108765;1257;70310;-78
2023/02/24 10:52:52;;;;;;;4.60;1.80;;;;;;;2.35;98.24;99700.83;108925;1256;72453;-78
2023/02/24 10:55:28;;;;;;;4.90;1.70;;;;;;;2.42;97.97;99688.98;108814;1257;61419;-78
2023/02/24 10:58:06;;;;;;;7.90;1.90;;;;;;;2.52;98.54;99685.83;108774;1256;60401;-78
2023/02/24 11:03:59;;;;;;;4.10;1.60;;;;;;;2.56;98.27;99663.27;108487;1257;71436;-79
2023/02/24 11:09:28;;;;;;;4.50;1.70;;;;;;;2.53;98.13;99653.82;108748;1258;59685;-78
2023/02/24 11:17:49;;;;;;;6.90;2.40;;;;;;;2.49;98.30;99627.61;108904;1257;70985;-78
2023/02/24 11:20:34;;;;;;;20.10;5.70;;;;;;;2.48;98.27;99619.58;108872;1257;72496;-79
2023/02/24 11:23:19;;;;;;;6.00;2.00;;;;;;;2.48;98.19;99606.09;108747;1259;60847;-79
2023/02/24 11:25:50;;;;;;;6.40;2.40;;;;;;;2.48;97.82;99597.95;108652;1258;59125;-78
2023/02/24 11:28:39;;;;;;;8.10;2.90;;;;;;;2.50;97.57;99597.85;108883;1256;74882;-78
2023/02/24 11:31:23;;;;;;;4.70;1.70;;;;;;;2.54;97.84;99595.05;108810;1256;71288;-78
2023/02/24 11:34:23;;;;;;;3.00;1.50;;;;;;;2.57;97.43;99587.12;108919;1256;72619;-78
2023/02/24 11:37:23;;;;;;;4.20;1.30;;;;;;;2.61;97.54;99571.71;108683;1257;61271;-78
2023/02/24 11:40:01;;;;;;;3.80;1.40;;;;;;;2.60;97.07;99582.73;108849;1256;59505;-78
2023/02/24 11:43:02;;;;;;;4.20;1.80;;;;;;;2.66;97.49;99567.34;108883;1257;72308;-78
2023/02/24 11:45:50;;;;;;;4.70;1.90;;;;;;;2.72;97.63;99558.48;108845;1258;71481;-78
2023/02/24 11:48:31;;;;;;;4.00;1.40;;;;;;;2.76;97.34;99558.51;108929;1260;73079;-77
2023/02/24 11:51:18;;;;;;;3.60;1.60;;;;;;;2.71;96.35;99553.76;108913;1256;61416;-78
2023/02/24 11:53:50;;;;;;;3.80;1.40;;;;;;;2.70;97.07;99542.69;108888;1260;59019;-78
2023/02/24 11:56:30;;;;;;;3.60;1.60;;;;;;;2.66;97.11;99543.05;108859;1259;74087;-78
2023/02/24 11:59:17;;;;;;;5.10;2.00;;;;;;;2.64;96.81;99534.75;108709;1262;70957;-77
2023/02/24 12:02:06;;;;;;;4.90;2.00;;;;;;;2.60;97.72;99531.27;108769;1256;71756;-77
2023/02/24 12:04:39;;;;;;;3.80;1.60;;;;;;;2.52;97.91;99526.84;108828;1259;61731;-77
2023/02/24 12:07:37;;;;;;;4.00;1.70;;;;;;;2.52;98.32;99519.83;108792;1257;60472;-77
2023/02/24 12:10:13;;;;;;;4.80;1.60;;;;;;;2.52;99.07;99513.56;108740;1258;73834;-77
2023/02/24 12:13:01;;;;;;;2.80;1.40;;;;;;;2.51;98.67;99513.67;108785;1260;69811;-77
2023/02/24 12:15:33;;;;;;;2.60;1.50;;;;;;;2.45;98.82;99504.96;108742;1257;70976;-77
2023/02/24 12:18:22;;;;;;;3.70;1.60;;;;;;;2.44;99.37;99497.02;108768;1261;60654;-76
2023/02/24 12:21:05;;;;;;;2.80;1.40;;;;;;;2.43;99.66;99503.38;108946;1256;60277;-77
2023/02/24 12:23:36;;;;;;;2.90;1.40;;;;;;;2.42;99.34;99496.77;108914;1256;74991;-77
2023/02/24 12:26:15;;;;;;;3.20;1.70;;;;;;;2.42;99.56;99496.56;108923;1257;70348;-77
2023/02/24 12:28:44;;;;;;;4.30;1.60;;;;;;;2.42;99.98;99487.48;108725;1261;70333;-77
2023/02/24 12:31:28;;;;;;;3.40;1.30;;;;;;;2.40;99.26;99490.33;108929;1256;59665;-77
2023/02/24 12:34:07;;;;;;;3.90;1.70;;;;;;;2.41;99.79;99486.05;108779;1259;59084;-77